Main page
METAR-TAF:

METAR-TAF

Airports :

Jinnah International Airport

Karachi, Pakistan

latitude: 24-54N, longitude: 067-08E, elevation: 21 m

Current weather observation

The report was made 13 minutes ago, at 18:55 UTC
Wind 5 kt from the Northwest
Temperature 23°C
Humidity 50%
Pressure 1016 hPa
Visibility: 4000 m
haze

METAR: OPKC 211855Z 32005KT 4000 HZ NSC 23/12 Q1016 NOSIG

Time: 00:08 (19:08 UTC)

Forecast

The report was made 3 hours and 8 minutes ago, at 16:00 UTC
Forecast valid from 21 at 18 UTC to 22 at 24 UTC
Wind 8 kt from the North/Northwest
Visibility: 3000 m
smoke
Temporary
from 22 at 01 UTC to 22 at 05 UTC
Wind 5 kt from the North/Northeast
Visibility: 2000 m
Few clouds at a height of 3000 ft
smoke
From 22 at 0600 UTC
Wind 10 kt from the West/Northwest
Visibility: 6000 m
From 22 at 1800 UTC
Wind 5 kt from the Northwest
Visibility: 4000 m
smoke

TAF: OPKC 211600Z 2118/2224 34008KT 3000 FU NSC TEMPO 2201/2205 02005KT 2000 FU FEW030 FM220600 29010KT 6000 NSC FM221800 31005KT 4000 FU NSC

Weather observations and forecasts of more than 4000 airports (METAR and TAF reports).

The available stations are represented by yellow and red dots on the map.

Hover mouse over dot to see the name of the station.

Then click to see weather observations and forecasts.

To change the map : click on the green buttons with a black cross to zoom in, on the green button with a dash to zoom out, or on the green arrows for adjacent maps.


METAR-TAF: